sensor_id;sensor_type;location;lat;lon;timestamp;P1;durP1;ratioP1;P2;durP2;ratioP2
38865;SDS011;62686;48.984;8.394;2023-03-15T00:00:04;8.50;;;3.43;;
38865;SDS011;62686;48.984;8.394;2023-03-15T00:02:35;6.60;;;3.40;;
38865;SDS011;62686;48.984;8.394;2023-03-15T00:05:04;7.13;;;3.30;;
38865;SDS011;62686;48.984;8.394;2023-03-15T00:07:32;8.73;;;2.77;;
38865;SDS011;62686;48.984;8.394;2023-03-15T00:10:02;5.13;;;3.23;;
38865;SDS011;62686;48.984;8.394;2023-03-15T00:12:31;6.53;;;3.23;;
38865;SDS011;62686;48.984;8.394;2023-03-15T00:15:00;8.60;;;3.07;;
38865;SDS011;62686;48.984;8.394;2023-03-15T00:17:28;6.63;;;3.00;;
38865;SDS011;62686;48.984;8.394;2023-03-15T00:20:00;7.33;;;3.30;;
38865;SDS011;62686;48.984;8.394;2023-03-15T00:22:29;8.80;;;3.50;;
38865;SDS011;62686;48.984;8.394;2023-03-15T00:24:57;5.47;;;3.10;;
38865;SDS011;62686;48.984;8.394;2023-03-15T00:27:27;7.70;;;3.00;;
38865;SDS011;62686;48.984;8.394;2023-03-15T00:29:55;4.73;;;2.67;;
38865;SDS011;62686;48.984;8.394;2023-03-15T00:32:23;8.40;;;3.50;;
38865;SDS011;62686;48.984;8.394;2023-03-15T00:34:51;11.83;;;3.37;;
38865;SDS011;62686;48.984;8.394;2023-03-15T00:37:20;5.80;;;3.23;;
38865;SDS011;62686;48.984;8.394;2023-03-15T00:39:51;6.83;;;3.30;;
38865;SDS011;62686;48.984;8.394;2023-03-15T00:42:21;6.70;;;3.33;;
38865;SDS011;62686;48.984;8.394;2023-03-15T00:44:54;7.57;;;3.17;;
38865;SDS011;62686;48.984;8.394;2023-03-15T00:47:22;9.00;;;3.67;;
38865;SDS011;62686;48.984;8.394;2023-03-15T00:49:50;7.10;;;3.00;;
38865;SDS011;62686;48.984;8.394;2023-03-15T00:52:18;6.13;;;3.07;;
38865;SDS011;62686;48.984;8.394;2023-03-15T00:54:50;5.37;;;3.10;;
38865;SDS011;62686;48.984;8.394;2023-03-15T00:57:18;7.43;;;3.47;;
38865;SDS011;62686;48.984;8.394;2023-03-15T00:59:47;7.47;;;3.60;;
38865;SDS011;62686;48.984;8.394;2023-03-15T01:02:16;8.73;;;4.10;;
38865;SDS011;62686;48.984;8.394;2023-03-15T01:04:47;6.47;;;3.33;;
38865;SDS011;62686;48.984;8.394;2023-03-15T01:07:16;8.73;;;3.30;;
38865;SDS011;62686;48.984;8.394;2023-03-15T01:09:44;7.37;;;3.63;;
38865;SDS011;62686;48.984;8.394;2023-03-15T01:12:13;9.53;;;3.70;;
38865;SDS011;62686;48.984;8.394;2023-03-15T01:14:42;9.23;;;3.77;;
38865;SDS011;62686;48.984;8.394;2023-03-15T01:17:10;6.77;;;3.30;;
38865;SDS011;62686;48.984;8.394;2023-03-15T01:19:39;6.80;;;3.50;;
38865;SDS011;62686;48.984;8.394;2023-03-15T01:22:08;8.30;;;3.40;;
38865;SDS011;62686;48.984;8.394;2023-03-15T01:24:36;8.00;;;3.37;;
38865;SDS011;62686;48.984;8.394;2023-03-15T01:27:04;7.33;;;3.57;;
38865;SDS011;62686;48.984;8.394;2023-03-15T01:29:32;8.70;;;3.50;;
38865;SDS011;62686;48.984;8.394;2023-03-15T01:32:00;8.13;;;3.57;;
38865;SDS011;62686;48.984;8.394;2023-03-15T01:34:29;8.70;;;3.30;;
38865;SDS011;62686;48.984;8.394;2023-03-15T01:36:58;8.17;;;3.43;;
38865;SDS011;62686;48.984;8.394;2023-03-15T01:39:28;6.00;;;3.37;;
38865;SDS011;62686;48.984;8.394;2023-03-15T01:41:57;6.40;;;3.43;;
38865;SDS011;62686;48.984;8.394;2023-03-15T01:44:44;7.83;;;3.47;;
38865;SDS011;62686;48.984;8.394;2023-03-15T01:47:15;11.50;;;3.97;;
38865;SDS011;62686;48.984;8.394;2023-03-15T01:49:44;8.37;;;3.20;;
38865;SDS011;62686;48.984;8.394;2023-03-15T01:52:17;5.77;;;3.10;;
38865;SDS011;62686;48.984;8.394;2023-03-15T01:54:48;8.60;;;3.60;;
38865;SDS011;62686;48.984;8.394;2023-03-15T01:57:20;5.97;;;3.27;;
38865;SDS011;62686;48.984;8.394;2023-03-15T01:59:56;5.77;;;3.07;;
38865;SDS011;62686;48.984;8.394;2023-03-15T02:02:27;9.87;;;3.47;;
38865;SDS011;62686;48.984;8.394;2023-03-15T02:04:56;5.37;;;3.10;;
38865;SDS011;62686;48.984;8.394;2023-03-15T02:07:31;10.30;;;3.83;;
38865;SDS011;62686;48.984;8.394;2023-03-15T02:10:00;5.43;;;3.07;;
38865;SDS011;62686;48.984;8.394;2023-03-15T02:12:32;5.73;;;3.17;;
38865;SDS011;62686;48.984;8.394;2023-03-15T02:15:05;6.27;;;3.20;;
38865;SDS011;62686;48.984;8.394;2023-03-15T02:17:35;12.77;;;3.63;;
38865;SDS011;62686;48.984;8.394;2023-03-15T02:20:08;8.07;;;3.10;;
38865;SDS011;62686;48.984;8.394;2023-03-15T02:22:49;7.87;;;3.77;;
38865;SDS011;62686;48.984;8.394;2023-03-15T02:25:25;7.87;;;3.27;;
38865;SDS011;62686;48.984;8.394;2023-03-15T02:28:07;11.73;;;3.80;;
38865;SDS011;62686;48.984;8.394;2023-03-15T02:30:39;8.00;;;3.60;;
38865;SDS011;62686;48.984;8.394;2023-03-15T02:33:09;6.47;;;3.67;;
38865;SDS011;62686;48.984;8.394;2023-03-15T02:35:41;7.13;;;3.93;;
38865;SDS011;62686;48.984;8.394;2023-03-15T02:38:09;6.90;;;3.40;;
38865;SDS011;62686;48.984;8.394;2023-03-15T02:40:37;7.27;;;3.63;;
38865;SDS011;62686;48.984;8.394;2023-03-15T02:43:08;6.60;;;3.87;;
38865;SDS011;62686;48.984;8.394;2023-03-15T02:45:40;7.80;;;3.80;;
38865;SDS011;62686;48.984;8.394;2023-03-15T02:48:09;9.73;;;4.07;;
38865;SDS011;62686;48.984;8.394;2023-03-15T02:50:38;7.53;;;3.70;;
38865;SDS011;62686;48.984;8.394;2023-03-15T02:53:06;7.73;;;3.90;;
38865;SDS011;62686;48.984;8.394;2023-03-15T02:55:34;8.90;;;4.23;;
38865;SDS011;62686;48.984;8.394;2023-03-15T02:58:03;8.07;;;4.17;;
38865;SDS011;62686;48.984;8.394;2023-03-15T03:00:33;9.63;;;4.30;;
38865;SDS011;62686;48.984;8.394;2023-03-15T03:03:01;6.80;;;4.20;;
38865;SDS011;62686;48.984;8.394;2023-03-15T03:05:29;5.80;;;3.80;;
38865;SDS011;62686;48.984;8.394;2023-03-15T03:07:57;7.67;;;4.70;;
38865;SDS011;62686;48.984;8.394;2023-03-15T03:10:28;9.97;;;4.60;;
38865;SDS011;62686;48.984;8.394;2023-03-15T03:12:56;8.40;;;4.40;;
38865;SDS011;62686;48.984;8.394;2023-03-15T03:15:24;10.20;;;4.50;;
38865;SDS011;62686;48.984;8.394;2023-03-15T03:17:54;12.43;;;4.40;;
38865;SDS011;62686;48.984;8.394;2023-03-15T03:20:22;10.80;;;4.70;;
38865;SDS011;62686;48.984;8.394;2023-03-15T03:22:50;9.23;;;4.50;;
38865;SDS011;62686;48.984;8.394;2023-03-15T03:25:21;11.57;;;4.77;;
38865;SDS011;62686;48.984;8.394;2023-03-15T03:27:52;10.00;;;5.00;;
38865;SDS011;62686;48.984;8.394;2023-03-15T03:30:22;12.77;;;4.90;;
38865;SDS011;62686;48.984;8.394;2023-03-15T03:32:51;9.53;;;4.83;;
38865;SDS011;62686;48.984;8.394;2023-03-15T03:35:20;8.17;;;4.83;;
38865;SDS011;62686;48.984;8.394;2023-03-15T03:37:48;9.57;;;4.87;;
38865;SDS011;62686;48.984;8.394;2023-03-15T03:40:19;8.17;;;4.90;;
38865;SDS011;62686;48.984;8.394;2023-03-15T03:42:47;8.77;;;5.10;;
38865;SDS011;62686;48.984;8.394;2023-03-15T03:45:15;12.20;;;5.17;;
38865;SDS011;62686;48.984;8.394;2023-03-15T03:47:43;11.03;;;5.23;;
38865;SDS011;62686;48.984;8.394;2023-03-15T03:50:11;14.20;;;5.37;;
38865;SDS011;62686;48.984;8.394;2023-03-15T03:52:41;12.67;;;5.53;;
38865;SDS011;62686;48.984;8.394;2023-03-15T03:55:10;13.43;;;5.47;;
38865;SDS011;62686;48.984;8.394;2023-03-15T03:57:39;15.00;;;5.60;;
38865;SDS011;62686;48.984;8.394;2023-03-15T04:00:07;10.20;;;5.73;;
38865;SDS011;62686;48.984;8.394;2023-03-15T04:02:39;11.17;;;5.93;;
38865;SDS011;62686;48.984;8.394;2023-03-15T04:05:09;10.77;;;6.00;;
38865;SDS011;62686;48.984;8.394;2023-03-15T04:07:37;13.10;;;5.53;;
38865;SDS011;62686;48.984;8.394;2023-03-15T04:10:08;14.03;;;6.10;;
38865;SDS011;62686;48.984;8.394;2023-03-15T04:12:40;11.47;;;5.97;;
38865;SDS011;62686;48.984;8.394;2023-03-15T04:15:08;13.93;;;5.40;;
38865;SDS011;62686;48.984;8.394;2023-03-15T04:17:37;14.67;;;6.00;;
38865;SDS011;62686;48.984;8.394;2023-03-15T04:20:06;11.87;;;5.73;;
38865;SDS011;62686;48.984;8.394;2023-03-15T04:22:37;11.60;;;5.23;;
38865;SDS011;62686;48.984;8.394;2023-03-15T04:25:07;11.47;;;5.13;;
38865;SDS011;62686;48.984;8.394;2023-03-15T04:27:36;14.50;;;5.60;;
38865;SDS011;62686;48.984;8.394;2023-03-15T04:30:05;15.30;;;6.77;;
38865;SDS011;62686;48.984;8.394;2023-03-15T04:32:34;12.00;;;6.00;;
38865;SDS011;62686;48.984;8.394;2023-03-15T04:35:03;11.47;;;6.03;;
38865;SDS011;62686;48.984;8.394;2023-03-15T04:37:31;14.07;;;6.17;;
38865;SDS011;62686;48.984;8.394;2023-03-15T04:40:00;12.10;;;5.83;;
38865;SDS011;62686;48.984;8.394;2023-03-15T04:42:29;15.07;;;6.53;;
38865;SDS011;62686;48.984;8.394;2023-03-15T04:44:57;13.10;;;5.77;;
38865;SDS011;62686;48.984;8.394;2023-03-15T04:47:25;19.47;;;6.57;;
38865;SDS011;62686;48.984;8.394;2023-03-15T04:49:53;17.17;;;6.50;;
38865;SDS011;62686;48.984;8.394;2023-03-15T04:52:21;18.43;;;6.77;;
38865;SDS011;62686;48.984;8.394;2023-03-15T04:54:49;15.43;;;6.83;;
38865;SDS011;62686;48.984;8.394;2023-03-15T04:57:18;20.53;;;6.83;;
38865;SDS011;62686;48.984;8.394;2023-03-15T04:59:47;13.63;;;6.00;;
38865;SDS011;62686;48.984;8.394;2023-03-15T05:02:15;18.70;;;6.40;;
38865;SDS011;62686;48.984;8.394;2023-03-15T05:04:43;18.20;;;6.60;;
38865;SDS011;62686;48.984;8.394;2023-03-15T05:07:12;12.10;;;6.50;;
38865;SDS011;62686;48.984;8.394;2023-03-15T05:09:40;11.33;;;6.03;;
38865;SDS011;62686;48.984;8.394;2023-03-15T05:12:12;15.37;;;6.17;;
38865;SDS011;62686;48.984;8.394;2023-03-15T05:14:40;15.90;;;6.77;;
38865;SDS011;62686;48.984;8.394;2023-03-15T05:17:10;13.43;;;6.57;;
38865;SDS011;62686;48.984;8.394;2023-03-15T05:19:40;15.27;;;6.40;;
38865;SDS011;62686;48.984;8.394;2023-03-15T05:22:09;13.30;;;6.40;;
38865;SDS011;62686;48.984;8.394;2023-03-15T05:24:37;14.77;;;6.30;;
38865;SDS011;62686;48.984;8.394;2023-03-15T05:27:05;16.57;;;7.37;;
38865;SDS011;62686;48.984;8.394;2023-03-15T05:29:33;17.07;;;7.33;;
38865;SDS011;62686;48.984;8.394;2023-03-15T05:32:02;13.80;;;6.77;;
38865;SDS011;62686;48.984;8.394;2023-03-15T05:34:32;19.17;;;7.17;;
38865;SDS011;62686;48.984;8.394;2023-03-15T05:37:00;20.17;;;7.70;;
38865;SDS011;62686;48.984;8.394;2023-03-15T05:39:28;18.50;;;7.93;;
38865;SDS011;62686;48.984;8.394;2023-03-15T05:42:00;17.63;;;7.80;;
38865;SDS011;62686;48.984;8.394;2023-03-15T05:44:31;13.03;;;7.00;;
38865;SDS011;62686;48.984;8.394;2023-03-15T05:47:04;15.97;;;7.90;;
38865;SDS011;62686;48.984;8.394;2023-03-15T05:49:40;14.73;;;8.23;;
38865;SDS011;62686;48.984;8.394;2023-03-15T05:52:15;18.17;;;7.73;;
38865;SDS011;62686;48.984;8.394;2023-03-15T05:54:46;19.00;;;8.27;;
38865;SDS011;62686;48.984;8.394;2023-03-15T05:57:14;21.70;;;8.33;;
38865;SDS011;62686;48.984;8.394;2023-03-15T05:59:50;19.87;;;8.33;;
38865;SDS011;62686;48.984;8.394;2023-03-15T06:02:20;17.03;;;7.63;;
38865;SDS011;62686;48.984;8.394;2023-03-15T06:04:50;16.73;;;7.43;;
38865;SDS011;62686;48.984;8.394;2023-03-15T06:07:18;18.50;;;7.87;;
38865;SDS011;62686;48.984;8.394;2023-03-15T06:09:47;20.00;;;8.10;;
38865;SDS011;62686;48.984;8.394;2023-03-15T06:12:17;18.80;;;8.13;;
38865;SDS011;62686;48.984;8.394;2023-03-15T06:14:46;17.70;;;8.50;;
38865;SDS011;62686;48.984;8.394;2023-03-15T06:17:14;17.73;;;9.30;;
38865;SDS011;62686;48.984;8.394;2023-03-15T06:19:42;16.57;;;7.43;;
38865;SDS011;62686;48.984;8.394;2023-03-15T06:22:12;18.07;;;8.70;;
38865;SDS011;62686;48.984;8.394;2023-03-15T06:24:40;26.67;;;13.63;;
38865;SDS011;62686;48.984;8.394;2023-03-15T06:27:08;47.17;;;25.63;;
38865;SDS011;62686;48.984;8.394;2023-03-15T06:29:37;20.67;;;8.67;;
38865;SDS011;62686;48.984;8.394;2023-03-15T06:32:05;18.17;;;10.90;;
38865;SDS011;62686;48.984;8.394;2023-03-15T06:34:34;16.20;;;8.13;;
38865;SDS011;62686;48.984;8.394;2023-03-15T06:37:02;19.90;;;7.97;;
38865;SDS011;62686;48.984;8.394;2023-03-15T06:39:32;17.77;;;8.03;;
38865;SDS011;62686;48.984;8.394;2023-03-15T06:42:00;13.80;;;7.27;;
38865;SDS011;62686;48.984;8.394;2023-03-15T06:44:30;15.27;;;7.73;;
38865;SDS011;62686;48.984;8.394;2023-03-15T06:46:58;15.57;;;7.43;;
38865;SDS011;62686;48.984;8.394;2023-03-15T06:49:26;11.80;;;7.23;;
38865;SDS011;62686;48.984;8.394;2023-03-15T06:51:54;14.23;;;6.40;;
38865;SDS011;62686;48.984;8.394;2023-03-15T06:54:23;15.57;;;7.83;;
38865;SDS011;62686;48.984;8.394;2023-03-15T06:56:52;14.40;;;8.03;;
38865;SDS011;62686;48.984;8.394;2023-03-15T06:59:21;11.07;;;7.23;;
38865;SDS011;62686;48.984;8.394;2023-03-15T07:01:50;12.67;;;6.57;;
38865;SDS011;62686;48.984;8.394;2023-03-15T07:04:18;11.07;;;4.47;;
38865;SDS011;62686;48.984;8.394;2023-03-15T07:06:46;11.03;;;3.67;;
38865;SDS011;62686;48.984;8.394;2023-03-15T07:09:15;6.17;;;3.20;;
38865;SDS011;62686;48.984;8.394;2023-03-15T07:11:44;8.30;;;2.77;;
38865;SDS011;62686;48.984;8.394;2023-03-15T07:14:14;8.10;;;2.37;;
38865;SDS011;62686;48.984;8.394;2023-03-15T07:16:42;3.67;;;2.10;;
38865;SDS011;62686;48.984;8.394;2023-03-15T07:19:10;5.03;;;2.17;;
38865;SDS011;62686;48.984;8.394;2023-03-15T07:21:38;6.83;;;2.10;;
38865;SDS011;62686;48.984;8.394;2023-03-15T07:24:07;4.43;;;1.73;;
38865;SDS011;62686;48.984;8.394;2023-03-15T07:26:35;3.60;;;2.93;;
38865;SDS011;62686;48.984;8.394;2023-03-15T07:29:06;6.40;;;2.33;;
38865;SDS011;62686;48.984;8.394;2023-03-15T07:31:35;4.73;;;1.93;;
38865;SDS011;62686;48.984;8.394;2023-03-15T07:34:04;5.40;;;3.07;;
38865;SDS011;62686;48.984;8.394;2023-03-15T07:36:32;10.40;;;2.60;;
38865;SDS011;62686;48.984;8.394;2023-03-15T07:39:01;7.27;;;3.17;;
38865;SDS011;62686;48.984;8.394;2023-03-15T07:41:30;4.80;;;2.27;;
38865;SDS011;62686;48.984;8.394;2023-03-15T07:43:58;4.07;;;2.07;;
38865;SDS011;62686;48.984;8.394;2023-03-15T07:46:27;7.83;;;2.13;;
38865;SDS011;62686;48.984;8.394;2023-03-15T07:48:57;5.17;;;2.60;;
38865;SDS011;62686;48.984;8.394;2023-03-15T07:51:25;8.10;;;2.30;;
38865;SDS011;62686;48.984;8.394;2023-03-15T07:53:54;8.00;;;2.73;;
38865;SDS011;62686;48.984;8.394;2023-03-15T07:56:22;4.53;;;2.40;;
38865;SDS011;62686;48.984;8.394;2023-03-15T07:58:51;5.63;;;2.63;;
38865;SDS011;62686;48.984;8.394;2023-03-15T08:01:19;7.20;;;2.30;;
38865;SDS011;62686;48.984;8.394;2023-03-15T08:03:50;4.80;;;2.30;;
38865;SDS011;62686;48.984;8.394;2023-03-15T08:06:21;3.63;;;2.17;;
38865;SDS011;62686;48.984;8.394;2023-03-15T08:08:50;4.47;;;2.87;;
38865;SDS011;62686;48.984;8.394;2023-03-15T08:11:18;4.20;;;2.07;;
38865;SDS011;62686;48.984;8.394;2023-03-15T08:13:47;7.47;;;2.20;;
38865;SDS011;62686;48.984;8.394;2023-03-15T08:16:15;4.03;;;1.80;;
38865;SDS011;62686;48.984;8.394;2023-03-15T08:18:44;5.70;;;2.00;;
38865;SDS011;62686;48.984;8.394;2023-03-15T08:21:12;3.57;;;2.00;;
38865;SDS011;62686;48.984;8.394;2023-03-15T08:23:42;4.57;;;2.00;;
38865;SDS011;62686;48.984;8.394;2023-03-15T08:26:10;6.10;;;2.20;;
38865;SDS011;62686;48.984;8.394;2023-03-15T08:28:38;5.87;;;2.47;;
38865;SDS011;62686;48.984;8.394;2023-03-15T08:31:07;4.97;;;2.07;;
38865;SDS011;62686;48.984;8.394;2023-03-15T08:33:35;4.83;;;2.37;;
38865;SDS011;62686;48.984;8.394;2023-03-15T08:36:03;3.50;;;1.70;;
38865;SDS011;62686;48.984;8.394;2023-03-15T08:38:32;4.33;;;1.50;;
38865;SDS011;62686;48.984;8.394;2023-03-15T08:41:03;3.90;;;1.80;;
38865;SDS011;62686;48.984;8.394;2023-03-15T08:43:31;3.87;;;1.70;;
38865;SDS011;62686;48.984;8.394;2023-03-15T08:45:59;4.53;;;1.90;;
38865;SDS011;62686;48.984;8.394;2023-03-15T08:48:28;4.40;;;2.07;;
38865;SDS011;62686;48.984;8.394;2023-03-15T08:51:00;6.53;;;1.87;;
38865;SDS011;62686;48.984;8.394;2023-03-15T08:53:29;4.53;;;1.60;;
38865;SDS011;62686;48.984;8.394;2023-03-15T08:55:57;2.83;;;1.60;;
38865;SDS011;62686;48.984;8.394;2023-03-15T08:58:27;4.97;;;1.48;;
38865;SDS011;62686;48.984;8.394;2023-03-15T09:00:55;4.13;;;1.48;;
38865;SDS011;62686;48.984;8.394;2023-03-15T09:03:24;5.10;;;1.77;;
38865;SDS011;62686;48.984;8.394;2023-03-15T09:05:54;4.33;;;1.33;;
38865;SDS011;62686;48.984;8.394;2023-03-15T09:08:23;5.00;;;1.87;;
38865;SDS011;62686;48.984;8.394;2023-03-15T09:10:52;3.50;;;1.50;;
38865;SDS011;62686;48.984;8.394;2023-03-15T09:13:21;4.93;;;1.73;;
38865;SDS011;62686;48.984;8.394;2023-03-15T09:15:52;3.97;;;1.50;;
38865;SDS011;62686;48.984;8.394;2023-03-15T09:18:21;5.63;;;1.87;;
38865;SDS011;62686;48.984;8.394;2023-03-15T09:20:50;4.23;;;1.53;;
38865;SDS011;62686;48.984;8.394;2023-03-15T09:23:18;3.80;;;1.30;;
38865;SDS011;62686;48.984;8.394;2023-03-15T09:25:47;4.50;;;1.40;;
38865;SDS011;62686;48.984;8.394;2023-03-15T09:28:15;6.50;;;1.67;;
38865;SDS011;62686;48.984;8.394;2023-03-15T09:30:43;3.03;;;1.50;;
38865;SDS011;62686;48.984;8.394;2023-03-15T09:33:15;5.17;;;1.30;;
38865;SDS011;62686;48.984;8.394;2023-03-15T09:35:44;3.50;;;1.67;;
38865;SDS011;62686;48.984;8.394;2023-03-15T09:38:12;3.67;;;1.63;;
38865;SDS011;62686;48.984;8.394;2023-03-15T09:40:41;4.40;;;1.63;;
38865;SDS011;62686;48.984;8.394;2023-03-15T09:43:19;3.83;;;1.40;;
38865;SDS011;62686;48.984;8.394;2023-03-15T09:46:06;5.33;;;1.40;;
38865;SDS011;62686;48.984;8.394;2023-03-15T09:48:48;3.57;;;1.60;;
38865;SDS011;62686;48.984;8.394;2023-03-15T09:51:26;4.70;;;1.33;;
38865;SDS011;62686;48.984;8.394;2023-03-15T09:54:02;9.27;;;1.43;;
38865;SDS011;62686;48.984;8.394;2023-03-15T09:56:37;3.73;;;1.20;;
38865;SDS011;62686;48.984;8.394;2023-03-15T09:59:11;3.10;;;1.63;;
38865;SDS011;62686;48.984;8.394;2023-03-15T10:01:41;3.60;;;1.33;;
38865;SDS011;62686;48.984;8.394;2023-03-15T10:04:13;7.47;;;1.93;;
38865;SDS011;62686;48.984;8.394;2023-03-15T10:06:52;7.53;;;1.60;;
38865;SDS011;62686;48.984;8.394;2023-03-15T10:09:23;2.33;;;1.30;;
38865;SDS011;62686;48.984;8.394;2023-03-15T10:11:56;3.53;;;1.50;;
38865;SDS011;62686;48.984;8.394;2023-03-15T10:14:33;3.97;;;1.50;;
38865;SDS011;62686;48.984;8.394;2023-03-15T10:17:13;4.10;;;1.57;;
38865;SDS011;62686;48.984;8.394;2023-03-15T10:19:46;7.53;;;1.87;;
38865;SDS011;62686;48.984;8.394;2023-03-15T10:22:20;2.27;;;1.47;;
38865;SDS011;62686;48.984;8.394;2023-03-15T10:24:56;4.10;;;1.40;;
38865;SDS011;62686;48.984;8.394;2023-03-15T10:27:30;6.37;;;1.57;;
38865;SDS011;62686;48.984;8.394;2023-03-15T10:30:08;2.97;;;1.50;;
38865;SDS011;62686;48.984;8.394;2023-03-15T10:32:42;3.87;;;1.40;;
38865;SDS011;62686;48.984;8.394;2023-03-15T10:35:16;6.53;;;1.50;;
38865;SDS011;62686;48.984;8.394;2023-03-15T10:37:45;3.43;;;1.53;;
38865;SDS011;62686;48.984;8.394;2023-03-15T10:40:15;5.63;;;1.53;;
38865;SDS011;62686;48.984;8.394;2023-03-15T10:43:17;5.03;;;1.40;;
38865;SDS011;62686;48.984;8.394;2023-03-15T10:45:56;3.23;;;1.20;;
38865;SDS011;62686;48.984;8.394;2023-03-15T10:48:27;3.47;;;1.50;;
38865;SDS011;62686;48.984;8.394;2023-03-15T10:50:58;2.60;;;1.07;;
38865;SDS011;62686;48.984;8.394;2023-03-15T10:53:31;2.60;;;1.20;;
38865;SDS011;62686;48.984;8.394;2023-03-15T10:56:00;1.97;;;1.27;;
38865;SDS011;62686;48.984;8.394;2023-03-15T10:58:38;5.20;;;1.30;;
38865;SDS011;62686;48.984;8.394;2023-03-15T11:01:10;2.10;;;1.10;;
38865;SDS011;62686;48.984;8.394;2023-03-15T11:03:54;3.30;;;1.50;;
38865;SDS011;62686;48.984;8.394;2023-03-15T11:06:31;3.13;;;1.23;;
38865;SDS011;62686;48.984;8.394;2023-03-15T11:09:08;3.63;;;1.30;;
38865;SDS011;62686;48.984;8.394;2023-03-15T11:14:31;3.47;;;1.30;;
38865;SDS011;62686;48.984;8.394;2023-03-15T11:17:01;3.20;;;1.50;;
38865;SDS011;62686;48.984;8.394;2023-03-15T11:19:32;4.43;;;1.50;;
38865;SDS011;62686;48.984;8.394;2023-03-15T11:22:09;3.17;;;1.50;;
38865;SDS011;62686;48.984;8.394;2023-03-15T11:24:40;3.57;;;1.40;;
38865;SDS011;62686;48.984;8.394;2023-03-15T11:27:09;3.20;;;1.60;;
38865;SDS011;62686;48.984;8.394;2023-03-15T11:29:39;2.60;;;1.40;;
38865;SDS011;62686;48.984;8.394;2023-03-15T11:32:14;5.23;;;1.27;;
38865;SDS011;62686;48.984;8.394;2023-03-15T11:34:45;1.93;;;1.40;;
38865;SDS011;62686;48.984;8.394;2023-03-15T11:37:21;3.87;;;1.40;;
38865;SDS011;62686;48.984;8.394;2023-03-15T11:39:52;3.63;;;1.50;;
38865;SDS011;62686;48.984;8.394;2023-03-15T11:42:36;3.10;;;1.60;;
38865;SDS011;62686;48.984;8.394;2023-03-15T11:45:12;2.33;;;1.50;;
38865;SDS011;62686;48.984;8.394;2023-03-15T11:47:46;6.27;;;1.70;;
38865;SDS011;62686;48.984;8.394;2023-03-15T11:50:19;4.63;;;1.70;;
38865;SDS011;62686;48.984;8.394;2023-03-15T11:52:49;2.43;;;1.40;;
38865;SDS011;62686;48.984;8.394;2023-03-15T11:55:19;3.17;;;1.30;;
38865;SDS011;62686;48.984;8.394;2023-03-15T11:57:51;3.40;;;1.47;;
38865;SDS011;62686;48.984;8.394;2023-03-15T12:00:24;2.93;;;1.27;;
38865;SDS011;62686;48.984;8.394;2023-03-15T12:03:31;2.20;;;1.30;;
38865;SDS011;62686;48.984;8.394;2023-03-15T12:06:09;3.27;;;1.47;;
38865;SDS011;62686;48.984;8.394;2023-03-15T12:08:45;3.17;;;1.90;;
38865;SDS011;62686;48.984;8.394;2023-03-15T12:14:21;4.07;;;1.33;;
38865;SDS011;62686;48.984;8.394;2023-03-15T12:20:15;2.93;;;1.37;;
38865;SDS011;62686;48.984;8.394;2023-03-15T12:22:48;5.20;;;1.47;;
38865;SDS011;62686;48.984;8.394;2023-03-15T12:25:21;2.30;;;1.10;;
38865;SDS011;62686;48.984;8.394;2023-03-15T12:27:56;1.80;;;1.00;;
38865;SDS011;62686;48.984;8.394;2023-03-15T12:30:29;2.37;;;1.20;;
38865;SDS011;62686;48.984;8.394;2023-03-15T12:32:59;2.13;;;1.10;;
38865;SDS011;62686;48.984;8.394;2023-03-15T12:35:31;2.63;;;1.37;;
38865;SDS011;62686;48.984;8.394;2023-03-15T12:38:08;4.23;;;1.30;;
38865;SDS011;62686;48.984;8.394;2023-03-15T12:40:46;3.60;;;1.47;;
38865;SDS011;62686;48.984;8.394;2023-03-15T12:43:34;3.43;;;1.30;;
38865;SDS011;62686;48.984;8.394;2023-03-15T12:46:04;3.87;;;2.10;;
38865;SDS011;62686;48.984;8.394;2023-03-15T12:48:32;3.50;;;1.67;;
38865;SDS011;62686;48.984;8.394;2023-03-15T12:51:02;2.33;;;1.40;;
38865;SDS011;62686;48.984;8.394;2023-03-15T12:53:36;3.53;;;1.73;;
38865;SDS011;62686;48.984;8.394;2023-03-15T12:59:17;1.87;;;1.37;;
38865;SDS011;62686;48.984;8.394;2023-03-15T13:01:59;5.83;;;3.67;;
38865;SDS011;62686;48.984;8.394;2023-03-15T13:04:28;2.53;;;1.60;;
38865;SDS011;62686;48.984;8.394;2023-03-15T13:07:03;1.70;;;1.30;;
38865;SDS011;62686;48.984;8.394;2023-03-15T13:10:00;2.72;;;1.30;;
38865;SDS011;62686;48.984;8.394;2023-03-15T13:12:51;2.17;;;1.52;;
38865;SDS011;62686;48.984;8.394;2023-03-15T13:15:26;3.28;;;1.63;;
38865;SDS011;62686;48.984;8.394;2023-03-15T13:18:03;1.83;;;1.50;;
38865;SDS011;62686;48.984;8.394;2023-03-15T13:20:47;2.47;;;1.35;;
38865;SDS011;62686;48.984;8.394;2023-03-15T13:23:26;2.22;;;1.45;;
38865;SDS011;62686;48.984;8.394;2023-03-15T13:25:59;4.07;;;1.50;;
38865;SDS011;62686;48.984;8.394;2023-03-15T13:28:45;6.23;;;1.30;;
38865;SDS011;62686;48.984;8.394;2023-03-15T13:31:16;8.00;;;1.70;;
38865;SDS011;62686;48.984;8.394;2023-03-15T13:33:48;5.30;;;2.27;;
38865;SDS011;62686;48.984;8.394;2023-03-15T13:36:23;3.27;;;1.93;;
38865;SDS011;62686;48.984;8.394;2023-03-15T13:38:54;3.63;;;1.80;;
38865;SDS011;62686;48.984;8.394;2023-03-15T13:41:23;4.23;;;2.33;;
38865;SDS011;62686;48.984;8.394;2023-03-15T13:43:55;2.33;;;1.90;;
38865;SDS011;62686;48.984;8.394;2023-03-15T13:46:25;3.73;;;2.00;;
38865;SDS011;62686;48.984;8.394;2023-03-15T13:48:55;3.97;;;1.80;;
38865;SDS011;62686;48.984;8.394;2023-03-15T13:51:24;3.50;;;1.63;;
38865;SDS011;62686;48.984;8.394;2023-03-15T13:53:55;3.57;;;1.83;;
38865;SDS011;62686;48.984;8.394;2023-03-15T13:56:28;4.33;;;1.57;;
38865;SDS011;62686;48.984;8.394;2023-03-15T13:59:13;3.40;;;1.80;;
38865;SDS011;62686;48.984;8.394;2023-03-15T14:01:42;4.63;;;2.30;;
38865;SDS011;62686;48.984;8.394;2023-03-15T14:04:11;3.40;;;1.70;;
38865;SDS011;62686;48.984;8.394;2023-03-15T14:06:41;2.37;;;1.70;;
38865;SDS011;62686;48.984;8.394;2023-03-15T14:09:15;1.70;;;1.50;;
38865;SDS011;62686;48.984;8.394;2023-03-15T14:11:45;5.10;;;2.07;;
38865;SDS011;62686;48.984;8.394;2023-03-15T14:14:29;1.50;;;1.23;;
38865;SDS011;62686;48.984;8.394;2023-03-15T14:16:58;1.80;;;1.30;;
38865;SDS011;62686;48.984;8.394;2023-03-15T14:19:34;3.73;;;1.30;;
38865;SDS011;62686;48.984;8.394;2023-03-15T14:22:04;2.80;;;1.30;;
38865;SDS011;62686;48.984;8.394;2023-03-15T14:24:41;2.93;;;1.30;;
38865;SDS011;62686;48.984;8.394;2023-03-15T14:27:13;1.50;;;1.10;;
38865;SDS011;62686;48.984;8.394;2023-03-15T14:29:46;2.30;;;1.00;;
38865;SDS011;62686;48.984;8.394;2023-03-15T14:32:24;2.90;;;1.20;;
38865;SDS011;62686;48.984;8.394;2023-03-15T14:35:01;2.03;;;1.03;;
38865;SDS011;62686;48.984;8.394;2023-03-15T14:37:35;1.60;;;1.10;;
38865;SDS011;62686;48.984;8.394;2023-03-15T14:40:06;2.20;;;1.30;;
38865;SDS011;62686;48.984;8.394;2023-03-15T14:42:42;1.40;;;1.00;;
38865;SDS011;62686;48.984;8.394;2023-03-15T14:45:12;1.50;;;1.07;;
38865;SDS011;62686;48.984;8.394;2023-03-15T14:47:41;1.67;;;1.10;;
38865;SDS011;62686;48.984;8.394;2023-03-15T14:50:21;1.57;;;0.97;;
38865;SDS011;62686;48.984;8.394;2023-03-15T14:52:51;1.60;;;0.87;;
38865;SDS011;62686;48.984;8.394;2023-03-15T14:55:20;0.93;;;0.80;;
38865;SDS011;62686;48.984;8.394;2023-03-15T14:57:50;1.67;;;1.10;;
38865;SDS011;62686;48.984;8.394;2023-03-15T15:00:20;1.80;;;1.20;;
38865;SDS011;62686;48.984;8.394;2023-03-15T15:02:50;4.67;;;2.57;;
38865;SDS011;62686;48.984;8.394;2023-03-15T15:05:21;1.73;;;1.20;;
38865;SDS011;62686;48.984;8.394;2023-03-15T15:07:51;2.33;;;1.03;;
38865;SDS011;62686;48.984;8.394;2023-03-15T15:10:23;1.67;;;1.10;;
38865;SDS011;62686;48.984;8.394;2023-03-15T15:12:53;1.53;;;1.00;;
38865;SDS011;62686;48.984;8.394;2023-03-15T15:15:32;1.00;;;0.90;;
38865;SDS011;62686;48.984;8.394;2023-03-15T15:18:19;1.37;;;1.10;;